Terminal Aerodrome Forecast
Issued by NWS Austin/San Antonio, TX

Home | Current Version | Previous Version | Text Only | Print | Product List | Glossary On
Versions: 1 2 3 4 5 6 7 8 9 10 11 12 13 14 15 16 17 18 19 20 21 22
000
FTUS44 KEWX 031940 AAC
TAFSAT
TAF AMD
KSAT 031940Z 0320/0424 02012G22KT 3SM -RA BKN007 OVC050
      TEMPO 0320/0321 2SM TSRA BR OVC007CB
     FM032200 03010KT 5SM -SHRA OVC008
     FM040700 02012KT 3SM SHRA BR OVC005
     FM041300 01012KT 5SM -SHRA OVC008=

USA.gov is the U.S. government's official web portal to all federal, state and local government web resources and services.